sensor_id;sensor_type;location;lat;lon;timestamp;temperature;humidity
19552;DHT22;9921;47.186;9.778;2024-03-02T00:00:57;7.20;99.90
19552;DHT22;9921;47.186;9.778;2024-03-02T00:03:30;7.20;99.90
19552;DHT22;9921;47.186;9.778;2024-03-02T00:05:58;7.10;99.90
19552;DHT22;9921;47.186;9.778;2024-03-02T00:08:25;7.00;99.90
19552;DHT22;9921;47.186;9.778;2024-03-02T00:11:01;7.00;99.90
19552;DHT22;9921;47.186;9.778;2024-03-02T00:13:32;7.10;99.90
19552;DHT22;9921;47.186;9.778;2024-03-02T00:16:00;7.10;99.90
19552;DHT22;9921;47.186;9.778;2024-03-02T00:18:31;7.10;99.90
19552;DHT22;9921;47.186;9.778;2024-03-02T00:21:00;7.10;99.90
19552;DHT22;9921;47.186;9.778;2024-03-02T00:23:29;7.00;99.90
19552;DHT22;9921;47.186;9.778;2024-03-02T00:26:00;7.00;99.90
19552;DHT22;9921;47.186;9.778;2024-03-02T00:28:33;7.10;99.90
19552;DHT22;9921;47.186;9.778;2024-03-02T00:31:03;7.10;99.90
19552;DHT22;9921;47.186;9.778;2024-03-02T00:33:32;7.20;99.90
19552;DHT22;9921;47.186;9.778;2024-03-02T00:36:08;7.20;99.90
19552;DHT22;9921;47.186;9.778;2024-03-02T00:38:46;7.10;99.90
19552;DHT22;9921;47.186;9.778;2024-03-02T00:41:21;7.10;99.90
19552;DHT22;9921;47.186;9.778;2024-03-02T00:43:57;7.10;99.90
19552;DHT22;9921;47.186;9.778;2024-03-02T00:46:24;7.10;99.90
19552;DHT22;9921;47.186;9.778;2024-03-02T00:48:56;7.00;99.90
19552;DHT22;9921;47.186;9.778;2024-03-02T00:51:26;7.00;99.90
19552;DHT22;9921;47.186;9.778;2024-03-02T00:53:58;7.00;99.90
19552;DHT22;9921;47.186;9.778;2024-03-02T00:56:30;7.00;99.90
19552;DHT22;9921;47.186;9.778;2024-03-02T00:58:57;7.10;99.90
19552;DHT22;9921;47.186;9.778;2024-03-02T01:01:24;7.20;99.90
19552;DHT22;9921;47.186;9.778;2024-03-02T01:03:51;7.20;99.90
19552;DHT22;9921;47.186;9.778;2024-03-02T01:06:18;7.20;99.90
19552;DHT22;9921;47.186;9.778;2024-03-02T01:08:45;7.20;99.90
19552;DHT22;9921;47.186;9.778;2024-03-02T01:11:16;7.20;99.90
19552;DHT22;9921;47.186;9.778;2024-03-02T01:13:44;7.30;99.90
19552;DHT22;9921;47.186;9.778;2024-03-02T01:16:13;7.20;99.90
19552;DHT22;9921;47.186;9.778;2024-03-02T01:18:41;7.10;99.90
19552;DHT22;9921;47.186;9.778;2024-03-02T01:21:08;7.20;99.90
19552;DHT22;9921;47.186;9.778;2024-03-02T01:23:35;7.10;99.90
19552;DHT22;9921;47.186;9.778;2024-03-02T01:26:02;7.10;99.90
19552;DHT22;9921;47.186;9.778;2024-03-02T01:28:29;7.10;99.90
19552;DHT22;9921;47.186;9.778;2024-03-02T01:30:59;7.20;99.90
19552;DHT22;9921;47.186;9.778;2024-03-02T01:33:27;7.30;99.90
19552;DHT22;9921;47.186;9.778;2024-03-02T01:35:54;7.30;99.90
19552;DHT22;9921;47.186;9.778;2024-03-02T01:38:22;7.40;99.90
19552;DHT22;9921;47.186;9.778;2024-03-02T01:40:49;7.40;99.90
19552;DHT22;9921;47.186;9.778;2024-03-02T01:43:25;7.30;99.90
19552;DHT22;9921;47.186;9.778;2024-03-02T01:45:53;7.20;99.90
19552;DHT22;9921;47.186;9.778;2024-03-02T01:48:24;7.10;99.90
19552;DHT22;9921;47.186;9.778;2024-03-02T01:50:53;7.10;99.90
19552;DHT22;9921;47.186;9.778;2024-03-02T01:53:25;7.20;99.90
19552;DHT22;9921;47.186;9.778;2024-03-02T01:56:00;7.10;99.90
19552;DHT22;9921;47.186;9.778;2024-03-02T01:58:27;7.10;99.90
19552;DHT22;9921;47.186;9.778;2024-03-02T02:00:54;7.00;99.90
19552;DHT22;9921;47.186;9.778;2024-03-02T02:03:25;7.00;99.90
19552;DHT22;9921;47.186;9.778;2024-03-02T02:05:54;7.00;99.90
19552;DHT22;9921;47.186;9.778;2024-03-02T02:08:21;7.10;99.90
19552;DHT22;9921;47.186;9.778;2024-03-02T02:10:47;7.10;99.90
19552;DHT22;9921;47.186;9.778;2024-03-02T02:13:16;7.20;99.90
19552;DHT22;9921;47.186;9.778;2024-03-02T02:15:42;7.20;99.90
19552;DHT22;9921;47.186;9.778;2024-03-02T02:18:09;7.10;99.90
19552;DHT22;9921;47.186;9.778;2024-03-02T02:20:39;7.10;99.90
19552;DHT22;9921;47.186;9.778;2024-03-02T02:23:08;7.00;99.90
19552;DHT22;9921;47.186;9.778;2024-03-02T02:25:35;7.00;99.90
19552;DHT22;9921;47.186;9.778;2024-03-02T02:28:02;6.90;99.90
19552;DHT22;9921;47.186;9.778;2024-03-02T02:30:30;6.90;99.90
19552;DHT22;9921;47.186;9.778;2024-03-02T02:32:57;6.80;99.90
19552;DHT22;9921;47.186;9.778;2024-03-02T02:35:24;6.80;99.90
19552;DHT22;9921;47.186;9.778;2024-03-02T02:37:52;6.70;99.90
19552;DHT22;9921;47.186;9.778;2024-03-02T02:40:21;6.70;99.90
19552;DHT22;9921;47.186;9.778;2024-03-02T02:42:48;6.80;99.90
19552;DHT22;9921;47.186;9.778;2024-03-02T02:45:16;6.70;99.90
19552;DHT22;9921;47.186;9.778;2024-03-02T02:47:43;6.70;99.90
19552;DHT22;9921;47.186;9.778;2024-03-02T02:50:11;6.70;99.90
19552;DHT22;9921;47.186;9.778;2024-03-02T02:52:39;6.80;99.90
19552;DHT22;9921;47.186;9.778;2024-03-02T02:55:07;6.70;99.90
19552;DHT22;9921;47.186;9.778;2024-03-02T02:57:36;6.70;99.90
19552;DHT22;9921;47.186;9.778;2024-03-02T03:00:06;6.70;99.90
19552;DHT22;9921;47.186;9.778;2024-03-02T03:02:38;6.70;99.90
19552;DHT22;9921;47.186;9.778;2024-03-02T03:05:10;6.60;99.90
19552;DHT22;9921;47.186;9.778;2024-03-02T03:07:37;6.70;99.90
19552;DHT22;9921;47.186;9.778;2024-03-02T03:10:07;6.60;99.90
19552;DHT22;9921;47.186;9.778;2024-03-02T03:12:41;6.60;99.90
19552;DHT22;9921;47.186;9.778;2024-03-02T03:15:09;6.70;99.90
19552;DHT22;9921;47.186;9.778;2024-03-02T03:17:38;6.70;99.90
19552;DHT22;9921;47.186;9.778;2024-03-02T03:20:07;6.70;99.90
19552;DHT22;9921;47.186;9.778;2024-03-02T03:22:36;6.70;99.90
19552;DHT22;9921;47.186;9.778;2024-03-02T03:25:06;6.70;99.90
19552;DHT22;9921;47.186;9.778;2024-03-02T03:27:33;6.60;99.90
19552;DHT22;9921;47.186;9.778;2024-03-02T03:30:04;6.70;99.90
19552;DHT22;9921;47.186;9.778;2024-03-02T03:32:32;6.60;99.90
19552;DHT22;9921;47.186;9.778;2024-03-02T03:35:02;6.70;99.90
19552;DHT22;9921;47.186;9.778;2024-03-02T03:37:29;6.60;99.90
19552;DHT22;9921;47.186;9.778;2024-03-02T03:39:58;6.50;99.90
19552;DHT22;9921;47.186;9.778;2024-03-02T03:42:28;6.50;99.90
19552;DHT22;9921;47.186;9.778;2024-03-02T03:44:54;6.40;99.90
19552;DHT22;9921;47.186;9.778;2024-03-02T03:47:23;6.30;99.90
19552;DHT22;9921;47.186;9.778;2024-03-02T03:49:53;6.30;99.90
19552;DHT22;9921;47.186;9.778;2024-03-02T03:52:19;6.30;99.90
19552;DHT22;9921;47.186;9.778;2024-03-02T03:54:49;6.20;99.90
19552;DHT22;9921;47.186;9.778;2024-03-02T03:57:16;6.20;99.90
19552;DHT22;9921;47.186;9.778;2024-03-02T03:59:43;6.20;99.90
19552;DHT22;9921;47.186;9.778;2024-03-02T04:02:11;6.10;99.90
19552;DHT22;9921;47.186;9.778;2024-03-02T04:04:39;6.10;99.90
19552;DHT22;9921;47.186;9.778;2024-03-02T04:07:06;6.20;99.90
19552;DHT22;9921;47.186;9.778;2024-03-02T04:09:33;6.30;99.90
19552;DHT22;9921;47.186;9.778;2024-03-02T04:12:00;6.30;99.90
19552;DHT22;9921;47.186;9.778;2024-03-02T04:14:27;6.30;99.90
19552;DHT22;9921;47.186;9.778;2024-03-02T04:16:53;6.40;99.90
19552;DHT22;9921;47.186;9.778;2024-03-02T04:19:21;6.40;99.90
19552;DHT22;9921;47.186;9.778;2024-03-02T04:21:49;6.40;99.90
19552;DHT22;9921;47.186;9.778;2024-03-02T04:24:16;6.30;99.90
19552;DHT22;9921;47.186;9.778;2024-03-02T04:26:42;6.20;99.90
19552;DHT22;9921;47.186;9.778;2024-03-02T04:29:09;6.20;99.90
19552;DHT22;9921;47.186;9.778;2024-03-02T04:31:36;6.10;99.90
19552;DHT22;9921;47.186;9.778;2024-03-02T04:34:04;6.20;99.90
19552;DHT22;9921;47.186;9.778;2024-03-02T04:36:31;6.20;99.90
19552;DHT22;9921;47.186;9.778;2024-03-02T04:39:00;6.30;99.90
19552;DHT22;9921;47.186;9.778;2024-03-02T04:41:27;6.30;99.90
19552;DHT22;9921;47.186;9.778;2024-03-02T04:43:56;6.30;99.90
19552;DHT22;9921;47.186;9.778;2024-03-02T04:46:23;6.40;99.90
19552;DHT22;9921;47.186;9.778;2024-03-02T04:48:50;6.40;99.90
19552;DHT22;9921;47.186;9.778;2024-03-02T04:51:24;6.40;99.90
19552;DHT22;9921;47.186;9.778;2024-03-02T04:53:50;6.30;99.90
19552;DHT22;9921;47.186;9.778;2024-03-02T04:56:19;6.30;99.90
19552;DHT22;9921;47.186;9.778;2024-03-02T04:59:11;6.20;99.90
19552;DHT22;9921;47.186;9.778;2024-03-02T05:01:40;6.20;99.90
19552;DHT22;9921;47.186;9.778;2024-03-02T05:04:07;6.20;99.90
19552;DHT22;9921;47.186;9.778;2024-03-02T05:06:37;6.20;99.90
19552;DHT22;9921;47.186;9.778;2024-03-02T05:09:06;6.20;99.90
19552;DHT22;9921;47.186;9.778;2024-03-02T05:11:34;6.30;99.90
19552;DHT22;9921;47.186;9.778;2024-03-02T05:14:21;6.20;99.90
19552;DHT22;9921;47.186;9.778;2024-03-02T05:16:48;6.20;99.90
19552;DHT22;9921;47.186;9.778;2024-03-02T05:19:15;6.20;99.90
19552;DHT22;9921;47.186;9.778;2024-03-02T05:21:41;6.20;99.90
19552;DHT22;9921;47.186;9.778;2024-03-02T05:24:09;6.10;99.90
19552;DHT22;9921;47.186;9.778;2024-03-02T05:26:37;6.10;99.90
19552;DHT22;9921;47.186;9.778;2024-03-02T05:29:04;6.10;99.90
19552;DHT22;9921;47.186;9.778;2024-03-02T05:31:31;6.20;99.90
19552;DHT22;9921;47.186;9.778;2024-03-02T05:33:58;6.20;99.90
19552;DHT22;9921;47.186;9.778;2024-03-02T05:36:26;6.20;99.90
19552;DHT22;9921;47.186;9.778;2024-03-02T05:38:53;6.20;99.90
19552;DHT22;9921;47.186;9.778;2024-03-02T05:41:22;6.10;99.90
19552;DHT22;9921;47.186;9.778;2024-03-02T05:43:50;6.10;99.90
19552;DHT22;9921;47.186;9.778;2024-03-02T05:46:17;6.00;99.90
19552;DHT22;9921;47.186;9.778;2024-03-02T05:48:44;6.00;99.90
19552;DHT22;9921;47.186;9.778;2024-03-02T05:51:10;6.00;99.90
19552;DHT22;9921;47.186;9.778;2024-03-02T05:53:39;6.00;99.90
19552;DHT22;9921;47.186;9.778;2024-03-02T05:56:07;6.00;99.90
19552;DHT22;9921;47.186;9.778;2024-03-02T05:58:34;6.10;99.90
19552;DHT22;9921;47.186;9.778;2024-03-02T06:01:17;6.00;99.90
19552;DHT22;9921;47.186;9.778;2024-03-02T06:03:44;5.90;99.90
19552;DHT22;9921;47.186;9.778;2024-03-02T06:06:11;5.90;99.90
19552;DHT22;9921;47.186;9.778;2024-03-02T06:08:40;5.80;99.90
19552;DHT22;9921;47.186;9.778;2024-03-02T06:11:06;5.80;99.90
19552;DHT22;9921;47.186;9.778;2024-03-02T06:13:35;5.70;99.90
19552;DHT22;9921;47.186;9.778;2024-03-02T06:16:04;5.70;99.90
19552;DHT22;9921;47.186;9.778;2024-03-02T06:18:34;5.70;99.90
19552;DHT22;9921;47.186;9.778;2024-03-02T06:21:03;5.70;99.90
19552;DHT22;9921;47.186;9.778;2024-03-02T06:23:30;5.70;99.90
19552;DHT22;9921;47.186;9.778;2024-03-02T06:25:56;5.60;99.90
19552;DHT22;9921;47.186;9.778;2024-03-02T06:28:23;5.60;99.90
19552;DHT22;9921;47.186;9.778;2024-03-02T06:30:50;5.60;99.90
19552;DHT22;9921;47.186;9.778;2024-03-02T06:33:17;5.60;99.90
19552;DHT22;9921;47.186;9.778;2024-03-02T06:35:47;5.60;99.90
19552;DHT22;9921;47.186;9.778;2024-03-02T06:38:14;5.60;99.90
19552;DHT22;9921;47.186;9.778;2024-03-02T06:40:47;5.70;99.90
19552;DHT22;9921;47.186;9.778;2024-03-02T06:43:14;5.70;99.90
19552;DHT22;9921;47.186;9.778;2024-03-02T06:45:41;5.80;99.90
19552;DHT22;9921;47.186;9.778;2024-03-02T06:48:07;5.80;99.90
19552;DHT22;9921;47.186;9.778;2024-03-02T06:50:34;5.90;99.90
19552;DHT22;9921;47.186;9.778;2024-03-02T06:53:04;6.00;99.90
19552;DHT22;9921;47.186;9.778;2024-03-02T06:55:31;6.00;99.90
19552;DHT22;9921;47.186;9.778;2024-03-02T06:58:01;6.10;99.90
19552;DHT22;9921;47.186;9.778;2024-03-02T07:00:28;6.10;99.90
19552;DHT22;9921;47.186;9.778;2024-03-02T07:02:55;6.10;99.90
19552;DHT22;9921;47.186;9.778;2024-03-02T07:05:23;6.20;99.90
19552;DHT22;9921;47.186;9.778;2024-03-02T07:07:50;6.20;99.90
19552;DHT22;9921;47.186;9.778;2024-03-02T07:10:18;6.30;99.90
19552;DHT22;9921;47.186;9.778;2024-03-02T07:12:45;6.40;99.90
19552;DHT22;9921;47.186;9.778;2024-03-02T07:15:16;6.50;99.90
19552;DHT22;9921;47.186;9.778;2024-03-02T07:18:09;6.60;99.90
19552;DHT22;9921;47.186;9.778;2024-03-02T07:20:36;6.70;99.90
19552;DHT22;9921;47.186;9.778;2024-03-02T07:23:04;6.70;99.90
19552;DHT22;9921;47.186;9.778;2024-03-02T07:25:36;6.70;99.90
19552;DHT22;9921;47.186;9.778;2024-03-02T07:28:06;6.80;99.90
19552;DHT22;9921;47.186;9.778;2024-03-02T07:30:36;6.80;99.90
19552;DHT22;9921;47.186;9.778;2024-03-02T07:33:04;6.80;99.90
19552;DHT22;9921;47.186;9.778;2024-03-02T07:35:31;6.90;99.90
19552;DHT22;9921;47.186;9.778;2024-03-02T07:38:04;7.00;99.90
19552;DHT22;9921;47.186;9.778;2024-03-02T07:40:34;7.10;99.90
19552;DHT22;9921;47.186;9.778;2024-03-02T07:43:01;7.20;99.90
19552;DHT22;9921;47.186;9.778;2024-03-02T07:45:28;7.30;99.90
19552;DHT22;9921;47.186;9.778;2024-03-02T07:47:55;7.40;99.90
19552;DHT22;9921;47.186;9.778;2024-03-02T07:50:21;7.50;99.90
19552;DHT22;9921;47.186;9.778;2024-03-02T07:52:48;7.70;99.90
19552;DHT22;9921;47.186;9.778;2024-03-02T07:55:15;7.80;99.90
19552;DHT22;9921;47.186;9.778;2024-03-02T07:57:43;7.90;99.90
19552;DHT22;9921;47.186;9.778;2024-03-02T08:00:13;8.00;99.90
19552;DHT22;9921;47.186;9.778;2024-03-02T08:02:46;8.20;99.90
19552;DHT22;9921;47.186;9.778;2024-03-02T08:05:13;8.30;99.90
19552;DHT22;9921;47.186;9.778;2024-03-02T08:07:44;8.40;99.90
19552;DHT22;9921;47.186;9.778;2024-03-02T08:10:11;8.60;99.90
19552;DHT22;9921;47.186;9.778;2024-03-02T08:12:38;8.70;99.90
19552;DHT22;9921;47.186;9.778;2024-03-02T08:15:09;8.90;99.90
19552;DHT22;9921;47.186;9.778;2024-03-02T08:17:38;9.00;99.90
19552;DHT22;9921;47.186;9.778;2024-03-02T08:20:07;9.10;99.90
19552;DHT22;9921;47.186;9.778;2024-03-02T08:22:34;9.30;99.90
19552;DHT22;9921;47.186;9.778;2024-03-02T08:25:01;9.40;99.90
19552;DHT22;9921;47.186;9.778;2024-03-02T08:27:31;9.50;99.90
19552;DHT22;9921;47.186;9.778;2024-03-02T08:29:58;9.60;99.90
19552;DHT22;9921;47.186;9.778;2024-03-02T08:32:26;9.60;99.90
19552;DHT22;9921;47.186;9.778;2024-03-02T08:34:55;9.70;99.90
19552;DHT22;9921;47.186;9.778;2024-03-02T08:37:23;9.70;99.90
19552;DHT22;9921;47.186;9.778;2024-03-02T08:39:50;9.60;99.90
19552;DHT22;9921;47.186;9.778;2024-03-02T08:42:17;9.60;99.90
19552;DHT22;9921;47.186;9.778;2024-03-02T08:44:46;9.60;99.90
19552;DHT22;9921;47.186;9.778;2024-03-02T08:47:13;9.60;99.90
19552;DHT22;9921;47.186;9.778;2024-03-02T08:49:41;9.70;99.90
19552;DHT22;9921;47.186;9.778;2024-03-02T08:52:08;9.70;99.90
19552;DHT22;9921;47.186;9.778;2024-03-02T08:54:38;9.80;99.90
19552;DHT22;9921;47.186;9.778;2024-03-02T08:57:05;9.90;99.90
19552;DHT22;9921;47.186;9.778;2024-03-02T08:59:32;10.00;99.90
19552;DHT22;9921;47.186;9.778;2024-03-02T09:01:59;10.00;99.90
19552;DHT22;9921;47.186;9.778;2024-03-02T09:04:29;10.10;99.90
19552;DHT22;9921;47.186;9.778;2024-03-02T09:06:57;10.20;99.90
19552;DHT22;9921;47.186;9.778;2024-03-02T09:09:24;10.30;99.90
19552;DHT22;9921;47.186;9.778;2024-03-02T09:11:51;10.50;99.90
19552;DHT22;9921;47.186;9.778;2024-03-02T09:14:20;10.40;99.90
19552;DHT22;9921;47.186;9.778;2024-03-02T09:16:47;10.40;99.90
19552;DHT22;9921;47.186;9.778;2024-03-02T09:19:14;10.60;99.90
19552;DHT22;9921;47.186;9.778;2024-03-02T09:21:42;10.70;99.90
19552;DHT22;9921;47.186;9.778;2024-03-02T09:24:10;10.80;99.90
19552;DHT22;9921;47.186;9.778;2024-03-02T09:26:38;10.80;99.90
19552;DHT22;9921;47.186;9.778;2024-03-02T09:29:06;10.80;99.90
19552;DHT22;9921;47.186;9.778;2024-03-02T09:31:38;10.90;99.90
19552;DHT22;9921;47.186;9.778;2024-03-02T09:34:05;11.00;99.90
19552;DHT22;9921;47.186;9.778;2024-03-02T09:36:32;11.20;99.90
19552;DHT22;9921;47.186;9.778;2024-03-02T09:39:01;11.40;99.90
19552;DHT22;9921;47.186;9.778;2024-03-02T09:41:39;11.50;99.90
19552;DHT22;9921;47.186;9.778;2024-03-02T09:44:06;11.70;99.90
19552;DHT22;9921;47.186;9.778;2024-03-02T09:46:33;11.70;99.90
19552;DHT22;9921;47.186;9.778;2024-03-02T09:49:04;12.00;99.90
19552;DHT22;9921;47.186;9.778;2024-03-02T09:51:31;12.20;99.90
19552;DHT22;9921;47.186;9.778;2024-03-02T09:54:01;12.50;99.90
19552;DHT22;9921;47.186;9.778;2024-03-02T09:56:29;12.90;99.90
19552;DHT22;9921;47.186;9.778;2024-03-02T09:58:59;13.30;99.90
19552;DHT22;9921;47.186;9.778;2024-03-02T10:01:26;13.70;99.90
19552;DHT22;9921;47.186;9.778;2024-03-02T10:03:53;14.10;99.90
19552;DHT22;9921;47.186;9.778;2024-03-02T10:06:24;14.70;99.90
19552;DHT22;9921;47.186;9.778;2024-03-02T10:08:55;15.20;99.90
19552;DHT22;9921;47.186;9.778;2024-03-02T10:11:30;15.50;99.90
19552;DHT22;9921;47.186;9.778;2024-03-02T10:14:06;15.50;99.90
19552;DHT22;9921;47.186;9.778;2024-03-02T10:16:39;15.90;99.90
19552;DHT22;9921;47.186;9.778;2024-03-02T10:19:16;16.10;99.90
19552;DHT22;9921;47.186;9.778;2024-03-02T10:21:44;16.20;99.90
19552;DHT22;9921;47.186;9.778;2024-03-02T10:24:11;16.20;99.90
19552;DHT22;9921;47.186;9.778;2024-03-02T10:26:39;16.30;99.90
19552;DHT22;9921;47.186;9.778;2024-03-02T10:29:12;16.40;99.90
19552;DHT22;9921;47.186;9.778;2024-03-02T10:31:40;16.60;99.90
19552;DHT22;9921;47.186;9.778;2024-03-02T10:34:08;17.20;99.90
19552;DHT22;9921;47.186;9.778;2024-03-02T10:36:37;18.10;99.90
19552;DHT22;9921;47.186;9.778;2024-03-02T10:39:09;19.00;99.90
19552;DHT22;9921;47.186;9.778;2024-03-02T10:41:38;19.70;99.90
19552;DHT22;9921;47.186;9.778;2024-03-02T10:44:20;20.60;99.90
19552;DHT22;9921;47.186;9.778;2024-03-02T10:46:49;21.60;99.90
19552;DHT22;9921;47.186;9.778;2024-03-02T10:49:16;22.30;99.90
19552;DHT22;9921;47.186;9.778;2024-03-02T10:51:43;22.60;99.90
19552;DHT22;9921;47.186;9.778;2024-03-02T10:54:10;22.50;99.90
19552;DHT22;9921;47.186;9.778;2024-03-02T10:56:40;22.20;99.90
19552;DHT22;9921;47.186;9.778;2024-03-02T10:59:16;21.90;99.90
19552;DHT22;9921;47.186;9.778;2024-03-02T11:01:47;22.40;99.90
19552;DHT22;9921;47.186;9.778;2024-03-02T11:04:16;23.60;99.90
19552;DHT22;9921;47.186;9.778;2024-03-02T11:06:47;24.70;99.90
19552;DHT22;9921;47.186;9.778;2024-03-02T11:09:14;25.60;99.90
19552;DHT22;9921;47.186;9.778;2024-03-02T11:11:44;26.30;99.10
19552;DHT22;9921;47.186;9.778;2024-03-02T11:14:18;25.90;99.80
19552;DHT22;9921;47.186;9.778;2024-03-02T11:16:54;24.80;99.40
19552;DHT22;9921;47.186;9.778;2024-03-02T11:19:25;23.80;97.60
19552;DHT22;9921;47.186;9.778;2024-03-02T11:21:52;22.80;99.40
19552;DHT22;9921;47.186;9.778;2024-03-02T11:24:29;21.90;99.70
19552;DHT22;9921;47.186;9.778;2024-03-02T11:26:58;21.20;99.90
19552;DHT22;9921;47.186;9.778;2024-03-02T11:29:44;20.60;99.90
19552;DHT22;9921;47.186;9.778;2024-03-02T11:32:20;20.00;99.90
19552;DHT22;9921;47.186;9.778;2024-03-02T11:34:49;19.50;99.90
19552;DHT22;9921;47.186;9.778;2024-03-02T11:37:17;19.20;99.90
19552;DHT22;9921;47.186;9.778;2024-03-02T11:39:46;18.90;99.90
19552;DHT22;9921;47.186;9.778;2024-03-02T11:42:14;18.70;99.90
19552;DHT22;9921;47.186;9.778;2024-03-02T11:44:44;18.40;99.90
19552;DHT22;9921;47.186;9.778;2024-03-02T11:47:12;18.20;99.90
19552;DHT22;9921;47.186;9.778;2024-03-02T11:49:45;17.90;99.90
19552;DHT22;9921;47.186;9.778;2024-03-02T11:52:13;17.60;99.90
19552;DHT22;9921;47.186;9.778;2024-03-02T11:54:42;17.30;99.90
19552;DHT22;9921;47.186;9.778;2024-03-02T11:57:15;17.00;99.90
19552;DHT22;9921;47.186;9.778;2024-03-02T11:59:45;16.80;99.90
19552;DHT22;9921;47.186;9.778;2024-03-02T12:02:18;16.50;99.90
19552;DHT22;9921;47.186;9.778;2024-03-02T12:04:46;16.20;99.90
19552;DHT22;9921;47.186;9.778;2024-03-02T12:07:18;16.10;99.90
19552;DHT22;9921;47.186;9.778;2024-03-02T12:09:46;15.90;99.90
19552;DHT22;9921;47.186;9.778;2024-03-02T12:12:13;15.80;99.90
19552;DHT22;9921;47.186;9.778;2024-03-02T12:14:51;15.80;99.90
19552;DHT22;9921;47.186;9.778;2024-03-02T12:17:21;16.00;99.90
19552;DHT22;9921;47.186;9.778;2024-03-02T12:19:49;16.40;99.90
19552;DHT22;9921;47.186;9.778;2024-03-02T12:22:19;17.50;99.90
19552;DHT22;9921;47.186;9.778;2024-03-02T12:24:52;18.00;99.90
19552;DHT22;9921;47.186;9.778;2024-03-02T12:27:20;18.00;99.90
19552;DHT22;9921;47.186;9.778;2024-03-02T12:29:48;18.10;99.90
19552;DHT22;9921;47.186;9.778;2024-03-02T12:32:16;18.00;99.90
19552;DHT22;9921;47.186;9.778;2024-03-02T12:34:46;18.10;99.90
19552;DHT22;9921;47.186;9.778;2024-03-02T12:37:15;18.10;99.90
19552;DHT22;9921;47.186;9.778;2024-03-02T12:39:44;18.10;99.90
19552;DHT22;9921;47.186;9.778;2024-03-02T12:42:11;17.80;99.90
19552;DHT22;9921;47.186;9.778;2024-03-02T12:44:40;17.60;99.90
19552;DHT22;9921;47.186;9.778;2024-03-02T12:47:07;17.40;99.90
19552;DHT22;9921;47.186;9.778;2024-03-02T12:49:35;17.20;99.90
19552;DHT22;9921;47.186;9.778;2024-03-02T12:52:05;17.90;99.90
19552;DHT22;9921;47.186;9.778;2024-03-02T12:54:32;19.60;99.90
19552;DHT22;9921;47.186;9.778;2024-03-02T12:57:00;21.80;99.90
19552;DHT22;9921;47.186;9.778;2024-03-02T12:59:30;23.70;99.90
19552;DHT22;9921;47.186;9.778;2024-03-02T13:01:57;25.60;99.90
19552;DHT22;9921;47.186;9.778;2024-03-02T13:04:24;26.90;99.90
19552;DHT22;9921;47.186;9.778;2024-03-02T13:06:54;28.30;97.70
19552;DHT22;9921;47.186;9.778;2024-03-02T13:09:23;29.10;93.90
19552;DHT22;9921;47.186;9.778;2024-03-02T13:11:53;29.70;90.80
19552;DHT22;9921;47.186;9.778;2024-03-02T13:14:22;29.60;90.90
19552;DHT22;9921;47.186;9.778;2024-03-02T13:16:53;30.30;89.80
19552;DHT22;9921;47.186;9.778;2024-03-02T13:19:22;30.90;84.20
19552;DHT22;9921;47.186;9.778;2024-03-02T13:21:49;30.90;84.60
19552;DHT22;9921;47.186;9.778;2024-03-02T13:24:19;31.00;79.60
19552;DHT22;9921;47.186;9.778;2024-03-02T13:26:48;30.40;77.30
19552;DHT22;9921;47.186;9.778;2024-03-02T13:29:17;29.70;77.10
19552;DHT22;9921;47.186;9.778;2024-03-02T13:31:47;29.40;77.20
19552;DHT22;9921;47.186;9.778;2024-03-02T13:34:14;29.40;77.90
19552;DHT22;9921;47.186;9.778;2024-03-02T13:36:40;29.70;78.50
19552;DHT22;9921;47.186;9.778;2024-03-02T13:39:07;29.80;77.20
19552;DHT22;9921;47.186;9.778;2024-03-02T13:41:42;29.80;75.00
19552;DHT22;9921;47.186;9.778;2024-03-02T13:44:17;29.60;75.70
19552;DHT22;9921;47.186;9.778;2024-03-02T13:46:45;29.50;75.40
19552;DHT22;9921;47.186;9.778;2024-03-02T13:49:18;29.30;76.50
19552;DHT22;9921;47.186;9.778;2024-03-02T13:51:48;28.80;75.60
19552;DHT22;9921;47.186;9.778;2024-03-02T13:54:15;28.70;74.20
19552;DHT22;9921;47.186;9.778;2024-03-02T13:56:43;28.60;75.00
19552;DHT22;9921;47.186;9.778;2024-03-02T13:59:10;28.50;75.40
19552;DHT22;9921;47.186;9.778;2024-03-02T14:01:37;28.30;75.10
19552;DHT22;9921;47.186;9.778;2024-03-02T14:04:05;28.20;77.80
19552;DHT22;9921;47.186;9.778;2024-03-02T14:06:32;28.50;74.10
19552;DHT22;9921;47.186;9.778;2024-03-02T14:09:03;28.80;74.80
19552;DHT22;9921;47.186;9.778;2024-03-02T14:11:30;28.80;75.90
19552;DHT22;9921;47.186;9.778;2024-03-02T14:13:58;29.10;75.40
19552;DHT22;9921;47.186;9.778;2024-03-02T14:16:28;29.20;74.20
19552;DHT22;9921;47.186;9.778;2024-03-02T14:18:59;29.10;71.10
19552;DHT22;9921;47.186;9.778;2024-03-02T14:21:28;28.80;73.00
19552;DHT22;9921;47.186;9.778;2024-03-02T14:23:55;28.90;73.50
19552;DHT22;9921;47.186;9.778;2024-03-02T14:26:22;28.90;72.30
19552;DHT22;9921;47.186;9.778;2024-03-02T14:28:51;29.00;71.50
19552;DHT22;9921;47.186;9.778;2024-03-02T14:31:26;28.60;70.80
19552;DHT22;9921;47.186;9.778;2024-03-02T14:33:55;28.20;71.80
19552;DHT22;9921;47.186;9.778;2024-03-02T14:36:22;27.50;73.00
19552;DHT22;9921;47.186;9.778;2024-03-02T14:38:54;26.70;71.50
19552;DHT22;9921;47.186;9.778;2024-03-02T14:41:21;26.00;73.90
19552;DHT22;9921;47.186;9.778;2024-03-02T14:43:51;25.30;76.40
19552;DHT22;9921;47.186;9.778;2024-03-02T14:46:24;25.00;77.70
19552;DHT22;9921;47.186;9.778;2024-03-02T14:48:53;25.00;78.10
19552;DHT22;9921;47.186;9.778;2024-03-02T14:51:20;24.90;80.80
19552;DHT22;9921;47.186;9.778;2024-03-02T14:53:48;24.80;80.40
19552;DHT22;9921;47.186;9.778;2024-03-02T14:56:17;24.60;81.00
19552;DHT22;9921;47.186;9.778;2024-03-02T14:58:44;24.30;82.80
19552;DHT22;9921;47.186;9.778;2024-03-02T15:01:13;24.00;81.30
19552;DHT22;9921;47.186;9.778;2024-03-02T15:03:42;23.60;81.50
19552;DHT22;9921;47.186;9.778;2024-03-02T15:06:10;23.10;83.70
19552;DHT22;9921;47.186;9.778;2024-03-02T15:08:37;22.60;84.50
19552;DHT22;9921;47.186;9.778;2024-03-02T15:11:03;22.00;86.10
19552;DHT22;9921;47.186;9.778;2024-03-02T15:13:30;21.60;87.30
19552;DHT22;9921;47.186;9.778;2024-03-02T15:16:00;21.10;90.10
19552;DHT22;9921;47.186;9.778;2024-03-02T15:18:27;20.80;90.50
19552;DHT22;9921;47.186;9.778;2024-03-02T15:20:55;20.40;91.10
19552;DHT22;9921;47.186;9.778;2024-03-02T15:23:24;20.00;92.60
19552;DHT22;9921;47.186;9.778;2024-03-02T15:25:54;19.80;92.10
19552;DHT22;9921;47.186;9.778;2024-03-02T15:28:21;19.50;93.00
19552;DHT22;9921;47.186;9.778;2024-03-02T15:30:52;19.30;92.50
19552;DHT22;9921;47.186;9.778;2024-03-02T15:33:23;19.10;94.30
19552;DHT22;9921;47.186;9.778;2024-03-02T15:35:58;18.80;95.00
19552;DHT22;9921;47.186;9.778;2024-03-02T15:38:28;18.60;96.60
19552;DHT22;9921;47.186;9.778;2024-03-02T15:40:55;18.30;97.00
19552;DHT22;9921;47.186;9.778;2024-03-02T15:43:24;18.10;97.10
19552;DHT22;9921;47.186;9.778;2024-03-02T15:46:00;17.80;97.40
19552;DHT22;9921;47.186;9.778;2024-03-02T15:48:28;17.70;97.80
19552;DHT22;9921;47.186;9.778;2024-03-02T15:50:54;17.50;99.40
19552;DHT22;9921;47.186;9.778;2024-03-02T15:53:25;17.30;99.90
19552;DHT22;9921;47.186;9.778;2024-03-02T15:55:54;17.10;99.90
19552;DHT22;9921;47.186;9.778;2024-03-02T15:58:21;16.90;99.90
19552;DHT22;9921;47.186;9.778;2024-03-02T16:00:51;16.60;99.90
19552;DHT22;9921;47.186;9.778;2024-03-02T16:03:24;16.30;99.90
19552;DHT22;9921;47.186;9.778;2024-03-02T16:05:50;16.10;99.90